sensor_id;sensor_type;location;lat;lon;timestamp;pressure;altitude;pressure_sealevel;temperature;humidity
47670;BME280;33408;52.062;11.722;2023-04-24T00:02:20;99800.09;;;12.13;100.00
47670;BME280;33408;52.062;11.722;2023-04-24T00:04:47;99792.19;;;12.16;100.00
47670;BME280;33408;52.062;11.722;2023-04-24T00:07:14;99795.81;;;12.12;100.00
47670;BME280;33408;52.062;11.722;2023-04-24T00:09:42;99798.81;;;12.23;100.00
47670;BME280;33408;52.062;11.722;2023-04-24T00:12:09;99796.75;;;12.31;100.00
47670;BME280;33408;52.062;11.722;2023-04-24T00:14:37;99787.16;;;12.33;100.00
47670;BME280;33408;52.062;11.722;2023-04-24T00:17:04;99786.69;;;12.44;100.00
47670;BME280;33408;52.062;11.722;2023-04-24T00:19:30;99790.34;;;12.40;100.00
47670;BME280;33408;52.062;11.722;2023-04-24T00:21:57;99790.66;;;12.32;100.00
47670;BME280;33408;52.062;11.722;2023-04-24T00:24:23;99776.44;;;12.41;100.00
47670;BME280;33408;52.062;11.722;2023-04-24T00:26:50;99775.59;;;12.40;100.00
47670;BME280;33408;52.062;11.722;2023-04-24T00:29:16;99764.34;;;12.40;100.00
47670;BME280;33408;52.062;11.722;2023-04-24T00:31:45;99769.63;;;12.38;100.00
47670;BME280;33408;52.062;11.722;2023-04-24T00:34:11;99766.72;;;12.46;100.00
47670;BME280;33408;52.062;11.722;2023-04-24T00:36:38;99754.53;;;12.47;100.00
47670;BME280;33408;52.062;11.722;2023-04-24T00:39:05;99759.81;;;12.45;100.00
47670;BME280;33408;52.062;11.722;2023-04-24T00:41:34;99748.69;;;12.42;100.00
47670;BME280;33408;52.062;11.722;2023-04-24T00:44:00;99748.44;;;12.48;100.00
47670;BME280;33408;52.062;11.722;2023-04-24T00:46:27;99745.69;;;12.51;100.00
47670;BME280;33408;52.062;11.722;2023-04-24T00:48:56;99748.50;;;12.46;100.00
47670;BME280;33408;52.062;11.722;2023-04-24T00:51:22;99745.16;;;12.43;100.00
47670;BME280;33408;52.062;11.722;2023-04-24T00:53:49;99742.56;;;12.43;100.00
47670;BME280;33408;52.062;11.722;2023-04-24T00:56:16;99740.25;;;12.36;100.00
47670;BME280;33408;52.062;11.722;2023-04-24T00:58:44;99742.97;;;12.33;100.00
47670;BME280;33408;52.062;11.722;2023-04-24T01:01:11;99743.88;;;12.32;100.00
47670;BME280;33408;52.062;11.722;2023-04-24T01:03:37;99752.56;;;12.31;100.00
47670;BME280;33408;52.062;11.722;2023-04-24T01:06:06;99749.78;;;12.36;100.00
47670;BME280;33408;52.062;11.722;2023-04-24T01:08:34;99739.63;;;12.30;100.00
47670;BME280;33408;52.062;11.722;2023-04-24T01:11:03;99730.38;;;12.24;100.00
47670;BME280;33408;52.062;11.722;2023-04-24T01:13:31;99732.72;;;12.30;100.00
47670;BME280;33408;52.062;11.722;2023-04-24T01:15:58;99735.91;;;12.37;100.00
47670;BME280;33408;52.062;11.722;2023-04-24T01:18:25;99734.19;;;12.36;100.00
47670;BME280;33408;52.062;11.722;2023-04-24T01:20:53;99729.94;;;12.35;100.00
47670;BME280;33408;52.062;11.722;2023-04-24T01:23:24;99725.31;;;12.42;100.00
47670;BME280;33408;52.062;11.722;2023-04-24T01:25:51;99733.28;;;12.37;100.00
47670;BME280;33408;52.062;11.722;2023-04-24T01:28:18;99733.94;;;12.42;100.00
47670;BME280;33408;52.062;11.722;2023-04-24T01:30:45;99738.25;;;12.43;100.00
47670;BME280;33408;52.062;11.722;2023-04-24T01:33:12;99741.88;;;12.39;100.00
47670;BME280;33408;52.062;11.722;2023-04-24T01:35:39;99751.31;;;12.42;100.00
47670;BME280;33408;52.062;11.722;2023-04-24T01:38:06;99746.81;;;12.45;100.00
47670;BME280;33408;52.062;11.722;2023-04-24T01:40:34;99753.84;;;12.43;100.00
47670;BME280;33408;52.062;11.722;2023-04-24T01:43:01;99746.09;;;12.42;100.00
47670;BME280;33408;52.062;11.722;2023-04-24T01:45:28;99742.56;;;12.43;100.00
47670;BME280;33408;52.062;11.722;2023-04-24T01:47:55;99752.97;;;12.43;100.00
47670;BME280;33408;52.062;11.722;2023-04-24T01:50:22;99751.84;;;12.28;100.00
47670;BME280;33408;52.062;11.722;2023-04-24T01:52:49;99755.41;;;12.25;100.00
47670;BME280;33408;52.062;11.722;2023-04-24T01:55:16;99762.63;;;12.18;100.00
47670;BME280;33408;52.062;11.722;2023-04-24T01:57:43;99760.38;;;12.11;100.00
47670;BME280;33408;52.062;11.722;2023-04-24T02:00:11;99763.19;;;12.04;100.00
47670;BME280;33408;52.062;11.722;2023-04-24T02:02:39;99763.50;;;11.97;100.00
47670;BME280;33408;52.062;11.722;2023-04-24T02:05:06;99756.72;;;11.93;100.00
47670;BME280;33408;52.062;11.722;2023-04-24T02:07:33;99762.84;;;11.92;100.00
47670;BME280;33408;52.062;11.722;2023-04-24T02:09:59;99757.91;;;11.84;100.00
47670;BME280;33408;52.062;11.722;2023-04-24T02:12:26;99764.38;;;11.74;100.00
47670;BME280;33408;52.062;11.722;2023-04-24T02:14:54;99754.84;;;11.74;100.00
47670;BME280;33408;52.062;11.722;2023-04-24T02:17:21;99750.00;;;11.65;100.00
47670;BME280;33408;52.062;11.722;2023-04-24T02:19:48;99742.97;;;11.67;100.00
47670;BME280;33408;52.062;11.722;2023-04-24T02:22:14;99746.38;;;11.69;100.00
47670;BME280;33408;52.062;11.722;2023-04-24T02:24:41;99741.53;;;11.60;100.00
47670;BME280;33408;52.062;11.722;2023-04-24T02:27:09;99746.13;;;11.53;100.00
47670;BME280;33408;52.062;11.722;2023-04-24T02:29:36;99740.22;;;11.49;100.00
47670;BME280;33408;52.062;11.722;2023-04-24T02:32:04;99745.94;;;11.58;100.00
47670;BME280;33408;52.062;11.722;2023-04-24T02:34:31;99745.91;;;11.59;100.00
47670;BME280;33408;52.062;11.722;2023-04-24T02:36:57;99758.63;;;11.65;100.00
47670;BME280;33408;52.062;11.722;2023-04-24T02:39:24;99758.13;;;11.56;100.00
47670;BME280;33408;52.062;11.722;2023-04-24T02:41:51;99750.34;;;11.56;100.00
47670;BME280;33408;52.062;11.722;2023-04-24T02:44:17;99744.44;;;11.52;100.00
47670;BME280;33408;52.062;11.722;2023-04-24T02:46:44;99746.41;;;11.45;100.00
47670;BME280;33408;52.062;11.722;2023-04-24T02:49:12;99744.66;;;11.46;100.00
47670;BME280;33408;52.062;11.722;2023-04-24T02:51:38;99756.25;;;11.37;100.00
47670;BME280;33408;52.062;11.722;2023-04-24T02:54:06;99759.84;;;11.33;100.00
47670;BME280;33408;52.062;11.722;2023-04-24T02:56:33;99767.41;;;11.39;100.00
47670;BME280;33408;52.062;11.722;2023-04-24T02:59:00;99773.63;;;11.35;100.00
47670;BME280;33408;52.062;11.722;2023-04-24T03:01:26;99770.31;;;11.30;100.00
47670;BME280;33408;52.062;11.722;2023-04-24T03:03:53;99772.34;;;11.22;100.00
47670;BME280;33408;52.062;11.722;2023-04-24T03:06:21;99759.03;;;11.07;100.00
47670;BME280;33408;52.062;11.722;2023-04-24T03:08:48;99761.81;;;11.03;100.00
47670;BME280;33408;52.062;11.722;2023-04-24T03:11:14;99755.00;;;11.00;100.00
47670;BME280;33408;52.062;11.722;2023-04-24T03:13:41;99754.44;;;10.92;100.00
47670;BME280;33408;52.062;11.722;2023-04-24T03:16:07;99749.19;;;10.93;100.00
47670;BME280;33408;52.062;11.722;2023-04-24T03:18:34;99753.56;;;10.91;100.00
47670;BME280;33408;52.062;11.722;2023-04-24T03:21:00;99755.16;;;10.95;100.00
47670;BME280;33408;52.062;11.722;2023-04-24T03:23:30;99751.66;;;10.97;100.00
47670;BME280;33408;52.062;11.722;2023-04-24T03:25:56;99743.03;;;10.96;100.00
47670;BME280;33408;52.062;11.722;2023-04-24T03:28:23;99742.25;;;10.94;100.00
47670;BME280;33408;52.062;11.722;2023-04-24T03:30:50;99754.47;;;10.90;100.00
47670;BME280;33408;52.062;11.722;2023-04-24T03:33:17;99754.44;;;10.92;100.00
47670;BME280;33408;52.062;11.722;2023-04-24T03:35:43;99750.41;;;10.83;100.00
47670;BME280;33408;52.062;11.722;2023-04-24T03:38:10;99748.50;;;10.88;100.00
47670;BME280;33408;52.062;11.722;2023-04-24T03:40:38;99755.53;;;10.85;100.00
47670;BME280;33408;52.062;11.722;2023-04-24T03:43:04;99749.50;;;10.84;100.00
47670;BME280;33408;52.062;11.722;2023-04-24T03:45:31;99748.03;;;10.77;100.00
47670;BME280;33408;52.062;11.722;2023-04-24T03:47:58;99754.84;;;10.80;100.00
47670;BME280;33408;52.062;11.722;2023-04-24T03:50:24;99743.00;;;10.72;100.00
47670;BME280;33408;52.062;11.722;2023-04-24T03:52:51;99744.06;;;10.67;100.00
47670;BME280;33408;52.062;11.722;2023-04-24T03:55:18;99740.69;;;10.65;100.00
47670;BME280;33408;52.062;11.722;2023-04-24T03:57:46;99744.13;;;10.65;100.00
47670;BME280;33408;52.062;11.722;2023-04-24T04:00:13;99749.78;;;10.51;100.00
47670;BME280;33408;52.062;11.722;2023-04-24T04:02:40;99744.00;;;10.43;100.00
47670;BME280;33408;52.062;11.722;2023-04-24T04:05:07;99761.13;;;10.47;100.00
47670;BME280;33408;52.062;11.722;2023-04-24T04:07:33;99763.28;;;10.34;100.00
47670;BME280;33408;52.062;11.722;2023-04-24T04:10:00;99764.84;;;10.40;100.00
47670;BME280;33408;52.062;11.722;2023-04-24T04:12:27;99765.63;;;10.42;100.00
47670;BME280;33408;52.062;11.722;2023-04-24T04:14:55;99771.50;;;10.47;100.00
47670;BME280;33408;52.062;11.722;2023-04-24T04:17:21;99769.06;;;10.43;100.00
47670;BME280;33408;52.062;11.722;2023-04-24T04:19:48;99767.25;;;10.45;100.00
47670;BME280;33408;52.062;11.722;2023-04-24T04:22:14;99769.75;;;10.48;100.00
47670;BME280;33408;52.062;11.722;2023-04-24T04:24:41;99769.91;;;10.43;100.00
47670;BME280;33408;52.062;11.722;2023-04-24T04:27:08;99774.16;;;10.71;100.00
47670;BME280;33408;52.062;11.722;2023-04-24T04:29:35;99772.28;;;10.49;100.00
47670;BME280;33408;52.062;11.722;2023-04-24T04:32:03;99777.66;;;10.43;100.00
47670;BME280;33408;52.062;11.722;2023-04-24T04:34:29;99775.31;;;10.37;100.00
47670;BME280;33408;52.062;11.722;2023-04-24T04:36:56;99767.69;;;10.57;100.00
47670;BME280;33408;52.062;11.722;2023-04-24T04:39:26;99767.03;;;10.77;100.00
47670;BME280;33408;52.062;11.722;2023-04-24T04:41:53;99764.34;;;11.04;100.00
47670;BME280;33408;52.062;11.722;2023-04-24T04:44:19;99770.13;;;11.12;100.00
47670;BME280;33408;52.062;11.722;2023-04-24T04:46:46;99759.81;;;11.11;100.00
47670;BME280;33408;52.062;11.722;2023-04-24T04:49:14;99774.78;;;11.50;100.00
47670;BME280;33408;52.062;11.722;2023-04-24T04:51:41;99777.25;;;11.99;100.00
47670;BME280;33408;52.062;11.722;2023-04-24T04:54:08;99763.94;;;12.49;100.00
47670;BME280;33408;52.062;11.722;2023-04-24T04:56:35;99774.31;;;13.50;100.00
47670;BME280;33408;52.062;11.722;2023-04-24T04:59:01;99781.88;;;14.30;100.00
47670;BME280;33408;52.062;11.722;2023-04-24T05:01:28;99771.53;;;15.14;100.00
47670;BME280;33408;52.062;11.722;2023-04-24T05:03:54;99774.19;;;14.97;100.00
47670;BME280;33408;52.062;11.722;2023-04-24T05:06:23;99776.19;;;14.56;100.00
47670;BME280;33408;52.062;11.722;2023-04-24T05:08:49;99784.50;;;13.74;100.00
47670;BME280;33408;52.062;11.722;2023-04-24T05:11:16;99794.69;;;13.98;100.00
47670;BME280;33408;52.062;11.722;2023-04-24T05:13:43;99789.09;;;14.94;100.00
47670;BME280;33408;52.062;11.722;2023-04-24T05:16:09;99783.81;;;16.09;100.00
47670;BME280;33408;52.062;11.722;2023-04-24T05:18:36;99782.34;;;16.50;100.00
47670;BME280;33408;52.062;11.722;2023-04-24T05:21:02;99769.50;;;16.75;100.00
47670;BME280;33408;52.062;11.722;2023-04-24T05:23:30;99766.66;;;16.94;100.00
47670;BME280;33408;52.062;11.722;2023-04-24T05:25:57;99775.28;;;17.11;100.00
47670;BME280;33408;52.062;11.722;2023-04-24T05:28:23;99768.19;;;16.54;100.00
47670;BME280;33408;52.062;11.722;2023-04-24T05:30:53;99776.59;;;14.66;100.00
47670;BME280;33408;52.062;11.722;2023-04-24T05:33:20;99781.72;;;14.50;100.00
47670;BME280;33408;52.062;11.722;2023-04-24T05:35:47;99782.19;;;13.68;100.00
47670;BME280;33408;52.062;11.722;2023-04-24T05:38:14;99781.81;;;13.38;100.00
47670;BME280;33408;52.062;11.722;2023-04-24T05:40:44;99789.00;;;13.12;100.00
47670;BME280;33408;52.062;11.722;2023-04-24T05:43:11;99788.88;;;13.36;100.00
47670;BME280;33408;52.062;11.722;2023-04-24T05:45:37;99787.75;;;13.60;100.00
47670;BME280;33408;52.062;11.722;2023-04-24T05:48:04;99784.63;;;13.90;100.00
47670;BME280;33408;52.062;11.722;2023-04-24T05:50:31;99789.75;;;14.46;100.00
47670;BME280;33408;52.062;11.722;2023-04-24T05:52:57;99789.19;;;14.21;100.00
47670;BME280;33408;52.062;11.722;2023-04-24T05:55:24;99788.81;;;13.75;100.00
47670;BME280;33408;52.062;11.722;2023-04-24T05:57:52;99796.84;;;13.71;100.00
47670;BME280;33408;52.062;11.722;2023-04-24T06:00:19;99800.91;;;13.76;100.00
47670;BME280;33408;52.062;11.722;2023-04-24T06:02:46;99794.50;;;13.64;100.00
47670;BME280;33408;52.062;11.722;2023-04-24T06:05:13;99799.22;;;13.37;100.00
47670;BME280;33408;52.062;11.722;2023-04-24T06:07:40;99795.41;;;13.82;100.00
47670;BME280;33408;52.062;11.722;2023-04-24T06:10:07;99803.50;;;14.49;100.00
47670;BME280;33408;52.062;11.722;2023-04-24T06:12:34;99793.72;;;15.39;100.00
47670;BME280;33408;52.062;11.722;2023-04-24T06:15:03;99804.28;;;14.51;100.00
47670;BME280;33408;52.062;11.722;2023-04-24T06:17:30;99799.91;;;13.98;100.00
47670;BME280;33408;52.062;11.722;2023-04-24T06:19:57;99807.53;;;13.83;100.00
47670;BME280;33408;52.062;11.722;2023-04-24T06:22:24;99808.97;;;14.08;100.00
47670;BME280;33408;52.062;11.722;2023-04-24T06:24:50;99807.94;;;13.93;100.00
47670;BME280;33408;52.062;11.722;2023-04-24T06:27:17;99804.78;;;13.86;100.00
47670;BME280;33408;52.062;11.722;2023-04-24T06:29:43;99804.94;;;13.83;100.00
47670;BME280;33408;52.062;11.722;2023-04-24T06:32:11;99803.22;;;14.01;100.00
47670;BME280;33408;52.062;11.722;2023-04-24T06:34:38;99808.50;;;14.00;100.00
47670;BME280;33408;52.062;11.722;2023-04-24T06:37:04;99801.09;;;14.81;100.00
47670;BME280;33408;52.062;11.722;2023-04-24T06:39:31;99799.69;;;14.91;100.00
47670;BME280;33408;52.062;11.722;2023-04-24T06:41:58;99798.75;;;14.57;100.00
47670;BME280;33408;52.062;11.722;2023-04-24T06:44:25;99794.47;;;14.74;100.00
47670;BME280;33408;52.062;11.722;2023-04-24T06:46:52;99801.47;;;15.40;100.00
47670;BME280;33408;52.062;11.722;2023-04-24T06:49:20;99804.50;;;15.82;100.00
47670;BME280;33408;52.062;11.722;2023-04-24T06:51:46;99798.44;;;15.81;100.00
47670;BME280;33408;52.062;11.722;2023-04-24T06:54:13;99797.03;;;16.22;100.00
47670;BME280;33408;52.062;11.722;2023-04-24T06:56:39;99797.69;;;16.26;100.00
47670;BME280;33408;52.062;11.722;2023-04-24T06:59:06;99789.88;;;15.94;100.00
47670;BME280;33408;52.062;11.722;2023-04-24T07:01:32;99792.41;;;14.81;100.00
47670;BME280;33408;52.062;11.722;2023-04-24T07:03:59;99794.84;;;14.84;100.00
47670;BME280;33408;52.062;11.722;2023-04-24T07:06:27;99790.81;;;14.61;100.00
47670;BME280;33408;52.062;11.722;2023-04-24T07:08:55;99792.22;;;14.49;100.00
47670;BME280;33408;52.062;11.722;2023-04-24T07:11:22;99804.31;;;14.32;100.00
47670;BME280;33408;52.062;11.722;2023-04-24T07:13:48;99798.34;;;14.30;100.00
47670;BME280;33408;52.062;11.722;2023-04-24T07:16:15;99796.03;;;14.24;100.00
47670;BME280;33408;52.062;11.722;2023-04-24T07:18:42;99799.81;;;14.36;100.00
47670;BME280;33408;52.062;11.722;2023-04-24T07:21:08;99797.88;;;14.57;100.00
47670;BME280;33408;52.062;11.722;2023-04-24T07:23:36;99797.84;;;14.76;100.00
47670;BME280;33408;52.062;11.722;2023-04-24T07:26:03;99798.47;;;14.64;100.00
47670;BME280;33408;52.062;11.722;2023-04-24T07:28:30;99792.53;;;14.95;100.00
47670;BME280;33408;52.062;11.722;2023-04-24T07:30:57;99783.56;;;15.01;100.00
47670;BME280;33408;52.062;11.722;2023-04-24T07:33:25;99792.31;;;14.82;100.00
47670;BME280;33408;52.062;11.722;2023-04-24T07:35:51;99795.88;;;14.64;100.00
47670;BME280;33408;52.062;11.722;2023-04-24T07:38:18;99787.69;;;14.87;100.00
47670;BME280;33408;52.062;11.722;2023-04-24T07:40:48;99777.03;;;14.57;100.00
47670;BME280;33408;52.062;11.722;2023-04-24T07:43:15;99784.19;;;14.71;100.00
47670;BME280;33408;52.062;11.722;2023-04-24T07:45:41;99787.31;;;14.95;100.00
47670;BME280;33408;52.062;11.722;2023-04-24T07:48:08;99786.72;;;14.90;100.00
47670;BME280;33408;52.062;11.722;2023-04-24T07:50:35;99786.78;;;14.88;100.00
47670;BME280;33408;52.062;11.722;2023-04-24T07:53:02;99792.22;;;15.01;100.00
47670;BME280;33408;52.062;11.722;2023-04-24T07:55:28;99785.38;;;14.65;100.00
47670;BME280;33408;52.062;11.722;2023-04-24T07:57:56;99794.41;;;14.75;100.00
47670;BME280;33408;52.062;11.722;2023-04-24T08:00:23;99792.00;;;14.88;100.00
47670;BME280;33408;52.062;11.722;2023-04-24T08:02:50;99788.34;;;14.92;100.00
47670;BME280;33408;52.062;11.722;2023-04-24T08:05:16;99794.31;;;14.77;100.00
47670;BME280;33408;52.062;11.722;2023-04-24T08:07:43;99797.75;;;14.43;100.00
47670;BME280;33408;52.062;11.722;2023-04-24T08:10:11;99794.13;;;14.28;100.00
47670;BME280;33408;52.062;11.722;2023-04-24T08:12:38;99804.47;;;14.29;100.00
47670;BME280;33408;52.062;11.722;2023-04-24T08:15:08;99799.88;;;14.52;100.00
47670;BME280;33408;52.062;11.722;2023-04-24T08:17:35;99794.31;;;14.59;100.00
47670;BME280;33408;52.062;11.722;2023-04-24T08:20:01;99798.41;;;14.65;100.00
47670;BME280;33408;52.062;11.722;2023-04-24T08:22:29;99796.75;;;14.98;100.00
47670;BME280;33408;52.062;11.722;2023-04-24T08:24:55;99797.38;;;15.52;100.00
47670;BME280;33408;52.062;11.722;2023-04-24T08:27:22;99793.94;;;15.99;100.00
47670;BME280;33408;52.062;11.722;2023-04-24T08:29:49;99790.94;;;15.42;100.00
47670;BME280;33408;52.062;11.722;2023-04-24T08:32:17;99788.91;;;15.15;100.00
47670;BME280;33408;52.062;11.722;2023-04-24T08:34:43;99795.53;;;15.70;100.00
47670;BME280;33408;52.062;11.722;2023-04-24T08:37:10;99793.25;;;15.64;100.00
47670;BME280;33408;52.062;11.722;2023-04-24T08:39:37;99793.28;;;15.80;100.00
47670;BME280;33408;52.062;11.722;2023-04-24T08:42:04;99798.56;;;15.62;100.00
47670;BME280;33408;52.062;11.722;2023-04-24T08:44:33;99796.81;;;15.79;100.00
47670;BME280;33408;52.062;11.722;2023-04-24T08:47:01;99797.13;;;16.04;100.00
47670;BME280;33408;52.062;11.722;2023-04-24T08:49:30;99799.09;;;16.01;100.00
47670;BME280;33408;52.062;11.722;2023-04-24T08:51:57;99799.94;;;15.85;100.00
47670;BME280;33408;52.062;11.722;2023-04-24T08:54:25;99800.75;;;15.70;100.00
47670;BME280;33408;52.062;11.722;2023-04-24T08:56:53;99800.25;;;15.47;100.00
47670;BME280;33408;52.062;11.722;2023-04-24T08:59:24;99796.25;;;15.40;100.00
47670;BME280;33408;52.062;11.722;2023-04-24T09:01:51;99803.50;;;15.35;100.00
47670;BME280;33408;52.062;11.722;2023-04-24T09:04:20;99805.13;;;15.54;100.00
47670;BME280;33408;52.062;11.722;2023-04-24T09:06:49;99804.44;;;15.50;100.00
47670;BME280;33408;52.062;11.722;2023-04-24T09:09:16;99795.50;;;15.38;100.00
47670;BME280;33408;52.062;11.722;2023-04-24T09:11:43;99797.00;;;15.26;100.00
47670;BME280;33408;52.062;11.722;2023-04-24T09:14:11;99799.97;;;15.03;100.00
47670;BME280;33408;52.062;11.722;2023-04-24T09:16:38;99800.06;;;15.01;100.00
47670;BME280;33408;52.062;11.722;2023-04-24T09:19:04;99798.25;;;15.19;100.00
47670;BME280;33408;52.062;11.722;2023-04-24T09:21:32;99809.72;;;15.82;100.00
47670;BME280;33408;52.062;11.722;2023-04-24T09:24:02;99805.31;;;15.98;100.00
47670;BME280;33408;52.062;11.722;2023-04-24T09:26:29;99798.50;;;15.96;100.00
47670;BME280;33408;52.062;11.722;2023-04-24T09:28:58;99784.75;;;16.69;96.78
47670;BME280;33408;52.062;11.722;2023-04-24T09:31:26;99802.25;;;16.83;98.79
47670;BME280;33408;52.062;11.722;2023-04-24T09:33:54;99796.22;;;17.11;99.38
47670;BME280;33408;52.062;11.722;2023-04-24T09:36:27;99807.63;;;16.95;98.71
47670;BME280;33408;52.062;11.722;2023-04-24T09:38:58;99801.47;;;16.81;99.44
47670;BME280;33408;52.062;11.722;2023-04-24T09:41:27;99815.78;;;16.75;100.00
47670;BME280;33408;52.062;11.722;2023-04-24T09:43:54;99807.84;;;16.16;95.28
47670;BME280;33408;52.062;11.722;2023-04-24T09:46:28;99813.38;;;16.26;93.88
47670;BME280;33408;52.062;11.722;2023-04-24T09:48:55;99804.56;;;16.12;89.42
47670;BME280;33408;52.062;11.722;2023-04-24T09:51:33;99810.22;;;16.04;88.54
47670;BME280;33408;52.062;11.722;2023-04-24T09:54:01;99806.34;;;16.42;88.71
47670;BME280;33408;52.062;11.722;2023-04-24T09:56:32;99808.38;;;16.67;88.75
47670;BME280;33408;52.062;11.722;2023-04-24T09:59:04;99804.84;;;16.68;90.28
47670;BME280;33408;52.062;11.722;2023-04-24T10:01:31;99801.44;;;16.52;92.72
47670;BME280;33408;52.062;11.722;2023-04-24T10:03:57;99808.53;;;16.03;91.71
47670;BME280;33408;52.062;11.722;2023-04-24T10:06:31;99814.59;;;16.20;95.91
47670;BME280;33408;52.062;11.722;2023-04-24T10:08:58;99813.28;;;16.27;99.56
47670;BME280;33408;52.062;11.722;2023-04-24T10:11:26;99825.72;;;16.54;95.84
47670;BME280;33408;52.062;11.722;2023-04-24T10:13:54;99826.31;;;15.31;100.00
47670;BME280;33408;52.062;11.722;2023-04-24T10:16:23;99836.22;;;14.74;100.00
47670;BME280;33408;52.062;11.722;2023-04-24T10:18:50;99839.59;;;14.76;100.00
47670;BME280;33408;52.062;11.722;2023-04-24T10:21:17;99832.41;;;14.81;100.00
47670;BME280;33408;52.062;11.722;2023-04-24T10:23:44;99841.34;;;15.10;100.00
47670;BME280;33408;52.062;11.722;2023-04-24T10:26:12;99843.94;;;15.44;100.00
47670;BME280;33408;52.062;11.722;2023-04-24T10:28:44;99836.16;;;15.76;100.00
47670;BME280;33408;52.062;11.722;2023-04-24T10:31:13;99835.09;;;15.80;100.00
47670;BME280;33408;52.062;11.722;2023-04-24T10:33:40;99838.72;;;15.77;100.00
47670;BME280;33408;52.062;11.722;2023-04-24T10:36:08;99829.16;;;15.60;100.00
47670;BME280;33408;52.062;11.722;2023-04-24T10:38:37;99834.66;;;16.19;99.22
47670;BME280;33408;52.062;11.722;2023-04-24T10:41:09;99830.25;;;17.11;92.71
47670;BME280;33408;52.062;11.722;2023-04-24T10:43:41;99828.00;;;17.91;95.21
47670;BME280;33408;52.062;11.722;2023-04-24T10:46:09;99820.31;;;18.15;89.67
47670;BME280;33408;52.062;11.722;2023-04-24T10:48:41;99816.22;;;17.70;76.93
47670;BME280;33408;52.062;11.722;2023-04-24T10:51:11;99821.25;;;17.87;72.51
47670;BME280;33408;52.062;11.722;2023-04-24T10:53:38;99820.44;;;17.58;74.25
47670;BME280;33408;52.062;11.722;2023-04-24T10:56:06;99819.19;;;17.78;71.18
47670;BME280;33408;52.062;11.722;2023-04-24T10:58:37;99810.47;;;17.77;69.12
47670;BME280;33408;52.062;11.722;2023-04-24T11:01:05;99821.34;;;17.85;68.97
47670;BME280;33408;52.062;11.722;2023-04-24T11:03:33;99825.47;;;17.90;69.03
47670;BME280;33408;52.062;11.722;2023-04-24T11:06:03;99824.44;;;17.78;70.07
47670;BME280;33408;52.062;11.722;2023-04-24T11:08:32;99826.06;;;18.35;68.54
47670;BME280;33408;52.062;11.722;2023-04-24T11:11:07;99832.97;;;17.24;70.52
47670;BME280;33408;52.062;11.722;2023-04-24T11:14:03;99831.31;;;17.37;78.07
47670;BME280;33408;52.062;11.722;2023-04-24T11:16:32;99832.84;;;18.52;71.31
47670;BME280;33408;52.062;11.722;2023-04-24T11:19:01;99827.06;;;17.78;62.99
47670;BME280;33408;52.062;11.722;2023-04-24T11:21:38;99813.06;;;17.21;62.38
47670;BME280;33408;52.062;11.722;2023-04-24T11:24:27;99821.19;;;17.02;63.45
47670;BME280;33408;52.062;11.722;2023-04-24T11:26:54;99824.09;;;16.98;65.24
47670;BME280;33408;52.062;11.722;2023-04-24T11:29:22;99817.88;;;17.71;64.91
47670;BME280;33408;52.062;11.722;2023-04-24T11:31:49;99823.66;;;17.48;65.20
47670;BME280;33408;52.062;11.722;2023-04-24T11:34:17;99830.25;;;17.54;65.46
47670;BME280;33408;52.062;11.722;2023-04-24T11:36:46;99825.50;;;17.32;60.54
47670;BME280;33408;52.062;11.722;2023-04-24T11:39:13;99827.78;;;17.80;63.63
47670;BME280;33408;52.062;11.722;2023-04-24T11:41:40;99832.25;;;17.36;58.33
47670;BME280;33408;52.062;11.722;2023-04-24T11:44:08;99829.78;;;17.76;57.44
47670;BME280;33408;52.062;11.722;2023-04-24T11:46:35;99831.19;;;17.39;58.22
47670;BME280;33408;52.062;11.722;2023-04-24T11:49:03;99829.03;;;16.88;57.49
47670;BME280;33408;52.062;11.722;2023-04-24T11:51:30;99833.97;;;16.32;59.21
47670;BME280;33408;52.062;11.722;2023-04-24T11:53:58;99852.91;;;16.82;63.36
47670;BME280;33408;52.062;11.722;2023-04-24T11:56:25;99839.91;;;17.39;63.57
47670;BME280;33408;52.062;11.722;2023-04-24T11:58:52;99827.34;;;17.88;61.14
47670;BME280;33408;52.062;11.722;2023-04-24T12:01:19;99827.56;;;17.56;61.20
47670;BME280;33408;52.062;11.722;2023-04-24T12:03:47;99826.44;;;17.60;61.37
47670;BME280;33408;52.062;11.722;2023-04-24T12:06:15;99831.84;;;18.13;61.96
47670;BME280;33408;52.062;11.722;2023-04-24T12:08:41;99839.38;;;17.48;62.09
47670;BME280;33408;52.062;11.722;2023-04-24T12:11:09;99840.91;;;16.93;62.02
47670;BME280;33408;52.062;11.722;2023-04-24T12:13:37;99834.09;;;16.75;63.58
47670;BME280;33408;52.062;11.722;2023-04-24T12:16:07;99853.25;;;16.45;64.40
47670;BME280;33408;52.062;11.722;2023-04-24T12:18:33;99849.81;;;16.45;64.30
47670;BME280;33408;52.062;11.722;2023-04-24T12:21:17;99842.53;;;17.39;63.14
47670;BME280;33408;52.062;11.722;2023-04-24T12:23:44;99852.69;;;17.87;63.39
47670;BME280;33408;52.062;11.722;2023-04-24T12:26:12;99834.97;;;17.35;60.17
47670;BME280;33408;52.062;11.722;2023-04-24T12:28:42;99847.00;;;17.52;63.72
47670;BME280;33408;52.062;11.722;2023-04-24T12:31:09;99847.75;;;17.10;64.34
47670;BME280;33408;52.062;11.722;2023-04-24T12:33:35;99843.81;;;16.89;63.84
47670;BME280;33408;52.062;11.722;2023-04-24T12:36:04;99851.50;;;16.46;64.96
47670;BME280;33408;52.062;11.722;2023-04-24T12:38:31;99851.38;;;16.63;66.15
47670;BME280;33408;52.062;11.722;2023-04-24T12:41:06;99858.84;;;16.39;66.38
47670;BME280;33408;52.062;11.722;2023-04-24T12:43:34;99850.47;;;16.32;64.74
47670;BME280;33408;52.062;11.722;2023-04-24T12:46:01;99861.06;;;16.61;67.66